Weather History for Bentonville, AR

Change the Weather History Date:

Tuesday, December 11, 2012

  Actual Average Record
Temperature  
Mean Temperature 32 °F -  
Max Temperature 46 °F 50 °F 67 °F (1990)
Min Temperature 17 °F 26 °F 10 °F (1957)
Degree Days  
Heating Degree Days 34    
Moisture  
Dew Point 15 °F    
Average Humidity 57    
Maximum Humidity 93    
Minimum Humidity 29    
Precipitation  
Precipitation 0.00 in - - ()
Sea Level Pressure  
Sea Level Pressure 30.11 in    
Wind  
Wind Speed 3 mph (SSW)    
Max Wind Speed 12 mph    
Max Gust Speed -    
Visibility 10 miles    
Events      
Averages and records for this station are not official NWS values.
T = Trace of Precipitation, MM = Missing Value Source: NWS Daily Summary

Daily Weather History Graph

Daily Weather History Graph

Search for Another Location

Airport:

Trip Planner

Search our weather history database for the weather conditions in past years. The results will help you decide how hot, cold, wet, or windy it might be!

Date:

Astronomy

Dec. 11, 2012 Rise Set
Actual Time 7:18 AM CST 5:02 PM CST
Civil Twilight 6:49 AM CST 5:30 PM CST
Nautical Twilight 6:17 AM CST 6:03 PM CST
Astronomical Twilight 5:46 AM CST 6:34 PM CST
Moon 5:15 AM CST (12/11) 3:40 PM CST (12/11)
Length of Visible Light 10h 40m
Length of Day
9h 43m
Waning Crescent, 4% of the Moon is Illuminated
Dec 11
Waning Crescent
Dec 13
New
Dec 19
First Quarter
Dec 28
Full
Jan 4
Last Quarter

Hourly Weather History & Observations

Time (CST) Temp. Windchill Dew Point Humidity Pressure Visibility Wind Dir Wind Speed Gust Speed Precip Events Conditions
12:15 AM 19.4 °F - 14.0 °F 80% 30.07 in 10.0 mi Calm Calm - N/A   Clear
12:35 AM 19.4 °F - 15.8 °F 86% 30.06 in 10.0 mi Calm Calm - N/A   Clear
1:15 AM 19.4 °F - 15.8 °F 86% 30.06 in 10.0 mi Calm Calm - N/A   Clear
1:35 AM 19.4 °F - 15.8 °F 86% 30.07 in 10.0 mi Calm Calm - N/A   Clear
1:55 AM 19.4 °F - 14.0 °F 80% 30.06 in 10.0 mi Calm Calm - N/A   Clear
2:16 AM 19.4 °F - 15.8 °F 86% 30.07 in 10.0 mi Calm Calm - N/A   Clear
2:35 AM 19.4 °F - 15.8 °F 86% 30.07 in 10.0 mi Calm Calm - N/A   Clear
2:55 AM 19.4 °F 12.8 °F 14.0 °F 80% 30.07 in 10.0 mi South 4.6 mph - N/A   Clear
3:35 AM 19.4 °F - 15.8 °F 86% 30.06 in 10.0 mi Calm Calm - N/A   Clear
4:15 AM 19.4 °F - 15.8 °F 86% 30.06 in 10.0 mi Calm Calm - N/A   Clear
4:35 AM 19.4 °F - 15.8 °F 86% 30.05 in 10.0 mi Calm Calm - N/A   Clear
4:55 AM 19.4 °F - 15.8 °F 86% 30.05 in 10.0 mi Calm Calm - N/A   Clear
5:16 AM 19.4 °F 14.3 °F 15.8 °F 86% 30.06 in 10.0 mi South 3.5 mph - N/A   Clear
5:35 AM 17.6 °F 12.3 °F 14.0 °F 86% 30.07 in 10.0 mi South 3.5 mph - N/A   Clear
5:55 AM 17.6 °F - 14.0 °F 86% 30.07 in 10.0 mi Calm Calm - N/A   Clear
6:16 AM 17.6 °F - 14.0 °F 86% 30.08 in 10.0 mi Calm Calm - N/A   Clear
6:35 AM 17.6 °F - 15.8 °F 93% 30.08 in 10.0 mi Calm Calm - N/A   Clear
7:15 AM 17.6 °F - 15.8 °F 93% 30.09 in 10.0 mi Calm Calm - N/A   Clear
7:35 AM 19.4 °F - 15.8 °F 86% 30.10 in 10.0 mi Calm Calm - N/A   Clear
8:15 AM 23.0 °F 18.4 °F 17.6 °F 80% 30.11 in 10.0 mi South 3.5 mph - N/A   Clear
8:16 AM 23.0 °F 17.0 °F 17.6 °F 80% 30.11 in 10.0 mi SSW 4.6 mph - N/A   Clear
8:35 AM 24.8 °F 20.5 °F 17.6 °F 74% 30.11 in 10.0 mi South 3.5 mph - N/A   Clear
8:55 AM 26.6 °F 22.6 °F 17.6 °F 69% 30.12 in 10.0 mi South 3.5 mph - N/A   Clear
9:35 AM 30.2 °F 24.3 °F 17.6 °F 60% 30.13 in 10.0 mi South 5.8 mph - N/A   Clear
9:55 AM 30.2 °F 23.4 °F 17.6 °F 60% 30.14 in 10.0 mi SW 6.9 mph - N/A   Clear
10:15 AM 33.8 °F 29.6 °F 15.8 °F 48% 30.15 in 10.0 mi SW 4.6 mph - N/A   Clear
10:55 AM 35.6 °F 29.2 °F 17.6 °F 48% 30.15 in 10.0 mi SW 8.1 mph - N/A   Clear
11:35 AM 37.4 °F 32.8 °F 17.6 °F 45% 30.14 in 10.0 mi South 5.8 mph - N/A   Clear
11:56 AM 39.2 °F 34.2 °F 17.6 °F 42% 30.13 in 10.0 mi SW 6.9 mph - N/A   Clear
12:15 PM 41.0 °F 37.1 °F 17.6 °F 39% 30.12 in 10.0 mi SSW 5.8 mph - N/A   Clear
12:35 PM 42.8 °F 38.0 °F 17.6 °F 36% 30.11 in 10.0 mi SW 8.1 mph - N/A   Clear
1:15 PM 44.6 °F 42.2 °F 17.6 °F 34% 30.10 in 10.0 mi SW 4.6 mph - N/A   Clear
1:35 PM 44.6 °F 39.2 °F 15.8 °F 31% 30.10 in 10.0 mi SSW 10.4 mph - N/A   Clear
1:55 PM 44.6 °F 38.8 °F 15.8 °F 31% 30.09 in 10.0 mi WSW 11.5 mph - N/A   Clear
2:15 PM 44.6 °F 39.7 °F 15.8 °F 31% 30.09 in 10.0 mi West 9.2 mph - N/A   Clear
2:35 PM 44.6 °F 40.2 °F 15.8 °F 31% 30.09 in 10.0 mi WSW 8.1 mph - N/A   Clear
2:55 PM 46.4 °F 41.9 °F 15.8 °F 29% 30.09 in 10.0 mi SW 9.2 mph - N/A   Clear
3:15 PM 46.4 °F 41.5 °F 15.8 °F 29% 30.09 in 10.0 mi SSW 10.4 mph - N/A   Clear
3:35 PM 46.4 °F 41.9 °F 15.8 °F 29% 30.09 in 10.0 mi SW 9.2 mph - N/A   Clear
3:55 PM 44.6 °F 40.2 °F 15.8 °F 31% 30.10 in 10.0 mi SSW 8.1 mph - N/A   Clear
4:35 PM 42.8 °F 38.6 °F 14.0 °F 31% 30.10 in 10.0 mi SW 6.9 mph - N/A   Clear
4:55 PM 41.0 °F 38.0 °F 15.8 °F 36% 30.11 in 10.0 mi SW 4.6 mph - N/A   Clear
5:15 PM 39.2 °F 35.9 °F 14.0 °F 36% 30.11 in 10.0 mi SW 4.6 mph - N/A   Clear
5:55 PM 37.4 °F 34.9 °F 14.0 °F 38% 30.12 in 10.0 mi SW 3.5 mph - N/A   Clear
6:15 PM 35.6 °F 32.8 °F 14.0 °F 41% 30.12 in 10.0 mi SW 3.5 mph - N/A   Clear
6:35 PM 35.6 °F 31.7 °F 14.0 °F 41% 30.13 in 10.0 mi SSW 4.6 mph - N/A   Clear
6:55 PM 33.8 °F 30.8 °F 14.0 °F 44% 30.13 in 10.0 mi SSW 3.5 mph - N/A   Clear
7:35 PM 33.8 °F 29.6 °F 14.0 °F 44% 30.14 in 10.0 mi South 4.6 mph - N/A   Clear
7:55 PM 33.8 °F 30.8 °F 12.2 °F 41% 30.15 in 10.0 mi South 3.5 mph - N/A   Clear
8:15 PM 32.0 °F 27.5 °F 12.2 °F 44% 30.16 in 10.0 mi South 4.6 mph - N/A   Clear
8:36 PM 33.8 °F 29.6 °F 12.2 °F 41% 30.16 in 10.0 mi South 4.6 mph - N/A   Clear
8:55 PM 33.8 °F 29.6 °F 12.2 °F 41% 30.16 in 10.0 mi SSW 4.6 mph - N/A   Clear
9:15 PM 32.0 °F 27.5 °F 12.2 °F 44% 30.17 in 10.0 mi South 4.6 mph - N/A   Clear
9:35 PM 28.4 °F 23.3 °F 12.2 °F 51% 30.17 in 10.0 mi South 4.6 mph - N/A   Clear
9:55 PM 30.2 °F 25.4 °F 12.2 °F 47% 30.18 in 10.0 mi South 4.6 mph - N/A   Clear
10:15 PM 30.2 °F 25.4 °F 12.2 °F 47% 30.18 in 10.0 mi South 4.6 mph - N/A   Clear
10:35 PM 30.2 °F 23.4 °F 12.2 °F 47% 30.18 in 10.0 mi South 6.9 mph - N/A   Clear
11:15 PM 30.2 °F 25.4 °F 12.2 °F 47% 30.19 in 10.0 mi South 4.6 mph - N/A   Clear
11:35 PM 30.2 °F 25.4 °F 12.2 °F 47% 30.20 in 10.0 mi South 4.6 mph - N/A   Clear
11:55 PM 28.4 °F 23.3 °F 12.2 °F 51% 30.20 in 10.0 mi SSE 4.6 mph - N/A   Clear